LNXQY ENKB-ENVA
Flight info
| Callsign | LNXQY |
|---|---|
| Flight time | N/A |
| Altitude | 7000 |
| Route | SURIL DCT DEKEB DCT OGROV DCT MALOV |
| Aircraft | B407/L-SDFGRY/C |
Departure
| Time | 2026-04-12 08:21 |
|---|---|
| Airport | Kristiansund Airport, Kvernberget (ENKB) |
Arrival
| Time | N/A |
|---|---|
| Airport | Trondheim Airport, Værnes (ENVA) |
| Time | Latitude | Longitude | Altitude | Speed | Heading |
|---|---|---|---|---|---|
| 2026-04-12 08:11 | 63.11399 | 7.82868 | 207 ft | 0 kts | 72° |
| 2026-04-12 08:17 | 63.11400 | 7.82874 | 208 ft | 1 kts | 73° |
| 2026-04-12 08:18 | 63.11393 | 7.82891 | 216 ft | 4 kts | 119° |
| 2026-04-12 08:18 | 63.11391 | 7.82981 | 212 ft | 10 kts | 73° |
| 2026-04-12 08:18 | 63.11421 | 7.83169 | 234 ft | 12 kts | 127° |
| 2026-04-12 08:18 | 63.11375 | 7.83230 | 217 ft | 6 kts | 176° |
| 2026-04-12 08:19 | 63.11327 | 7.83263 | 220 ft | 7 kts | 154° |
| 2026-04-12 08:19 | 63.11327 | 7.83352 | 242 ft | 10 kts | 91° |
| 2026-04-12 08:19 | 63.11380 | 7.83752 | 332 ft | 50 kts | 74° |
| 2026-04-12 08:19 | 63.11486 | 7.84738 | 488 ft | 81 kts | 84° |
| 2026-04-12 08:20 | 63.11570 | 7.86215 | 562 ft | 112 kts | 84° |
| 2026-04-12 08:20 | 63.11509 | 7.88139 | 330 ft | 136 kts | 91° |
| 2026-04-12 08:20 | 63.11493 | 7.90095 | 391 ft | 117 kts | 90° |
| 2026-04-12 08:20 | 63.11504 | 7.91756 | 680 ft | 104 kts | 89° |
| 2026-04-12 08:21 | 63.11525 | 7.93319 | 953 ft | 101 kts | 91° |
| 2026-04-12 08:21 | 63.11553 | 7.94864 | 1222 ft | 101 kts | 94° |
| 2026-04-12 08:21 | 63.11618 | 7.96410 | 1491 ft | 103 kts | 79° |
| 2026-04-12 08:21 | 63.11841 | 7.97896 | 1787 ft | 106 kts | 81° |
| 2026-04-12 08:22 | 63.12088 | 7.99504 | 2051 ft | 116 kts | 77° |
| 2026-04-12 08:22 | 63.12365 | 8.01212 | 2322 ft | 119 kts | 77° |
| 2026-04-12 08:22 | 63.12655 | 8.02960 | 2598 ft | 121 kts | 77° |
| 2026-04-12 08:22 | 63.12939 | 8.04693 | 2868 ft | 121 kts | 77° |
| 2026-04-12 08:23 | 63.13230 | 8.06440 | 3138 ft | 121 kts | 78° |
| 2026-04-12 08:23 | 63.13522 | 8.08192 | 3414 ft | 121 kts | 78° |
| 2026-04-12 08:23 | 63.13808 | 8.09934 | 3688 ft | 121 kts | 79° |
| 2026-04-12 08:23 | 63.14101 | 8.11762 | 3978 ft | 132 kts | 79° |
| 2026-04-12 08:24 | 63.14417 | 8.13698 | 4255 ft | 138 kts | 78° |
| 2026-04-12 08:24 | 63.14750 | 8.15705 | 4531 ft | 141 kts | 78° |
| 2026-04-12 08:24 | 63.15089 | 8.17742 | 4801 ft | 143 kts | 78° |
| 2026-04-12 08:24 | 63.15430 | 8.19811 | 5071 ft | 144 kts | 78° |
| 2026-04-12 08:25 | 63.15773 | 8.21888 | 5340 ft | 145 kts | 79° |
| 2026-04-12 08:25 | 63.16113 | 8.23973 | 5608 ft | 146 kts | 78° |
| 2026-04-12 08:25 | 63.16460 | 8.26074 | 5881 ft | 146 kts | 79° |
| 2026-04-12 08:25 | 63.16808 | 8.28205 | 6150 ft | 147 kts | 79° |
| 2026-04-12 08:26 | 63.17158 | 8.30341 | 6421 ft | 148 kts | 80° |
| 2026-04-12 08:26 | 63.17503 | 8.32447 | 6681 ft | 147 kts | 80° |
| 2026-04-12 08:26 | 63.17848 | 8.34570 | 6938 ft | 145 kts | 81° |
| 2026-04-12 08:26 | 63.18195 | 8.36721 | 7014 ft | 154 kts | 79° |
| 2026-04-12 08:27 | 63.18572 | 8.39032 | 7012 ft | 161 kts | 78° |
| 2026-04-12 08:27 | 63.18956 | 8.41373 | 7014 ft | 163 kts | 77° |
| 2026-04-12 08:27 | 63.19342 | 8.43728 | 7022 ft | 165 kts | 78° |
| 2026-04-12 08:27 | 63.19733 | 8.46142 | 7017 ft | 166 kts | 77° |
| 2026-04-12 08:28 | 63.20126 | 8.48564 | 7013 ft | 166 kts | 77° |
| 2026-04-12 08:28 | 63.20515 | 8.50950 | 7015 ft | 166 kts | 78° |
| 2026-04-12 08:28 | 63.20905 | 8.53367 | 7006 ft | 166 kts | 77° |
| 2026-04-12 08:28 | 63.21291 | 8.55766 | 7004 ft | 166 kts | 77° |
| 2026-04-12 08:29 | 63.21678 | 8.58174 | 7000 ft | 165 kts | 77° |
| 2026-04-12 08:29 | 63.22061 | 8.60558 | 6996 ft | 165 kts | 77° |
| 2026-04-12 08:29 | 63.22447 | 8.62961 | 6989 ft | 165 kts | 77° |
| 2026-04-12 08:29 | 63.22831 | 8.65339 | 6987 ft | 165 kts | 79° |
| 2026-04-12 08:30 | 63.23215 | 8.67750 | 6983 ft | 165 kts | 79° |
| 2026-04-12 08:30 | 63.23597 | 8.70152 | 6977 ft | 164 kts | 78° |
| 2026-04-12 08:30 | 63.23978 | 8.72536 | 6973 ft | 164 kts | 78° |
| 2026-04-12 08:30 | 63.24363 | 8.74929 | 6969 ft | 163 kts | 79° |
| 2026-04-12 08:31 | 63.24738 | 8.77294 | 6973 ft | 163 kts | 78° |
| 2026-04-12 08:31 | 63.25114 | 8.79661 | 6977 ft | 163 kts | 78° |
| 2026-04-12 08:31 | 63.25467 | 8.81892 | 6981 ft | 163 kts | 78° |
| 2026-04-12 08:31 | 63.25868 | 8.84409 | 6986 ft | 163 kts | 79° |
| 2026-04-12 08:32 | 63.26246 | 8.86790 | 6990 ft | 163 kts | 78° |
| 2026-04-12 08:32 | 63.26619 | 8.89150 | 6996 ft | 162 kts | 78° |
| 2026-04-12 08:32 | 63.26993 | 8.91517 | 6999 ft | 162 kts | 78° |
| 2026-04-12 08:32 | 63.27366 | 8.93879 | 7006 ft | 162 kts | 78° |
| 2026-04-12 08:33 | 63.27739 | 8.96242 | 7009 ft | 162 kts | 78° |
| 2026-04-12 08:33 | 63.28109 | 8.98583 | 7014 ft | 162 kts | 78° |
| 2026-04-12 08:33 | 63.28483 | 9.00960 | 7016 ft | 162 kts | 78° |
| 2026-04-12 08:33 | 63.28850 | 9.03306 | 7015 ft | 162 kts | 78° |
| 2026-04-12 08:34 | 63.29222 | 9.05675 | 7013 ft | 162 kts | 78° |
| 2026-04-12 08:34 | 63.29597 | 9.08061 | 7015 ft | 162 kts | 79° |
| 2026-04-12 08:34 | 63.29959 | 9.10434 | 7016 ft | 163 kts | 77° |
| 2026-04-12 08:34 | 63.30367 | 9.12803 | 7014 ft | 163 kts | 77° |
| 2026-04-12 08:35 | 63.30769 | 9.15155 | 7014 ft | 163 kts | 78° |
| 2026-04-12 08:35 | 63.31172 | 9.17527 | 7014 ft | 164 kts | 78° |
| 2026-04-12 08:35 | 63.31572 | 9.19900 | 7016 ft | 164 kts | 78° |
| 2026-04-12 08:35 | 63.31964 | 9.22247 | 7011 ft | 164 kts | 78° |
| 2026-04-12 08:36 | 63.32370 | 9.24654 | 7012 ft | 164 kts | 78° |
| 2026-04-12 08:36 | 63.32761 | 9.27004 | 7010 ft | 163 kts | 78° |
| 2026-04-12 08:36 | 63.33158 | 9.29387 | 7013 ft | 164 kts | 78° |
| 2026-04-12 08:36 | 63.33553 | 9.31755 | 7017 ft | 164 kts | 79° |
| 2026-04-12 08:37 | 63.33952 | 9.34157 | 7016 ft | 164 kts | 79° |
| 2026-04-12 08:37 | 63.34347 | 9.36543 | 7020 ft | 164 kts | 79° |
| 2026-04-12 08:37 | 63.34742 | 9.38916 | 7021 ft | 164 kts | 80° |
| 2026-04-12 08:37 | 63.35138 | 9.41322 | 7024 ft | 165 kts | 79° |
| 2026-04-12 08:38 | 63.35528 | 9.43693 | 7018 ft | 165 kts | 79° |
| 2026-04-12 08:38 | 63.35928 | 9.46095 | 7021 ft | 165 kts | 79° |
| 2026-04-12 08:38 | 63.36323 | 9.48498 | 7025 ft | 165 kts | 79° |
| 2026-04-12 08:38 | 63.36720 | 9.50900 | 7025 ft | 165 kts | 80° |
| 2026-04-12 08:39 | 63.37117 | 9.53322 | 7028 ft | 165 kts | 80° |
| 2026-04-12 08:39 | 63.37511 | 9.55727 | 7030 ft | 166 kts | 80° |
| 2026-04-12 08:39 | 63.37907 | 9.58141 | 7032 ft | 165 kts | 79° |
| 2026-04-12 08:39 | 63.38299 | 9.60534 | 7037 ft | 166 kts | 80° |
| 2026-04-12 08:40 | 63.38697 | 9.62956 | 7046 ft | 166 kts | 81° |
| 2026-04-12 08:40 | 63.39087 | 9.65351 | 7044 ft | 166 kts | 81° |
| 2026-04-12 08:40 | 63.39482 | 9.67774 | 7047 ft | 166 kts | 82° |
| 2026-04-12 08:40 | 63.39880 | 9.70222 | 7051 ft | 166 kts | 82° |
| 2026-04-12 08:41 | 63.40272 | 9.72616 | 7067 ft | 166 kts | 83° |
| 2026-04-12 08:41 | 63.40666 | 9.75044 | 7070 ft | 166 kts | 83° |
| 2026-04-12 08:41 | 63.41042 | 9.77364 | 7073 ft | 166 kts | 83° |
| 2026-04-12 08:41 | 63.41434 | 9.79795 | 7072 ft | 166 kts | 83° |
| 2026-04-12 08:42 | 63.41816 | 9.82150 | 7075 ft | 167 kts | 83° |
| 2026-04-12 08:42 | 63.42187 | 9.84452 | 7076 ft | 167 kts | 83° |